sensor_id;sensor_type;location;lat;lon;timestamp;pressure;altitude;pressure_sealevel;temperature;humidity
42859;BME280;28505;56.970;40.998;2023-01-15T00:04:16;100758.81;;;-2.93;100.00
42859;BME280;28505;56.970;40.998;2023-01-15T00:09:39;100767.63;;;-2.86;100.00
42859;BME280;28505;56.970;40.998;2023-01-15T00:15:02;100755.00;;;-2.91;100.00
42859;BME280;28505;56.970;40.998;2023-01-15T00:20:24;100747.53;;;-2.87;100.00
42859;BME280;28505;56.970;40.998;2023-01-15T00:25:46;100757.34;;;-2.81;100.00
42859;BME280;28505;56.970;40.998;2023-01-15T00:31:31;100758.53;;;-2.84;100.00
42859;BME280;28505;56.970;40.998;2023-01-15T00:36:54;100743.59;;;-2.91;100.00
42859;BME280;28505;56.970;40.998;2023-01-15T00:42:18;100755.31;;;-2.79;100.00
42859;BME280;28505;56.970;40.998;2023-01-15T00:47:43;100745.06;;;-2.89;100.00
42859;BME280;28505;56.970;40.998;2023-01-15T00:53:11;100736.53;;;-2.91;100.00
42859;BME280;28505;56.970;40.998;2023-01-15T00:58:33;100734.94;;;-2.85;100.00
42859;BME280;28505;56.970;40.998;2023-01-15T01:03:56;100737.59;;;-2.85;100.00
42859;BME280;28505;56.970;40.998;2023-01-15T01:09:18;100726.59;;;-2.89;100.00
42859;BME280;28505;56.970;40.998;2023-01-15T01:14:40;100719.41;;;-2.95;100.00
42859;BME280;28505;56.970;40.998;2023-01-15T01:20:04;100755.38;;;-2.72;100.00
42859;BME280;28505;56.970;40.998;2023-01-15T01:25:27;100746.84;;;-2.74;100.00
42859;BME280;28505;56.970;40.998;2023-01-15T01:30:50;100740.50;;;-2.80;100.00
42859;BME280;28505;56.970;40.998;2023-01-15T01:36:12;100712.34;;;-2.94;100.00
42859;BME280;28505;56.970;40.998;2023-01-15T01:41:34;100742.75;;;-2.77;100.00
42859;BME280;28505;56.970;40.998;2023-01-15T01:46:57;100716.78;;;-2.95;100.00
42859;BME280;28505;56.970;40.998;2023-01-15T01:52:25;100718.50;;;-2.87;100.00
42859;BME280;28505;56.970;40.998;2023-01-15T01:57:49;100701.22;;;-2.90;100.00
42859;BME280;28505;56.970;40.998;2023-01-15T02:03:12;100708.38;;;-2.84;100.00
42859;BME280;28505;56.970;40.998;2023-01-15T02:08:35;100716.31;;;-2.84;100.00
42859;BME280;28505;56.970;40.998;2023-01-15T02:14:08;100682.59;;;-3.03;100.00
42859;BME280;28505;56.970;40.998;2023-01-15T02:20:16;100686.88;;;-3.02;100.00
42859;BME280;28505;56.970;40.998;2023-01-15T02:31:22;100724.31;;;-2.92;100.00
42859;BME280;28505;56.970;40.998;2023-01-15T02:36:54;100686.44;;;-3.06;100.00
42859;BME280;28505;56.970;40.998;2023-01-15T02:42:21;100694.72;;;-3.09;100.00
42859;BME280;28505;56.970;40.998;2023-01-15T02:47:48;100695.34;;;-3.07;100.00
42859;BME280;28505;56.970;40.998;2023-01-15T02:53:18;100706.34;;;-3.03;100.00
42859;BME280;28505;56.970;40.998;2023-01-15T02:58:50;100701.88;;;-3.02;100.00
42859;BME280;28505;56.970;40.998;2023-01-15T03:04:45;100716.16;;;-2.97;100.00
42859;BME280;28505;56.970;40.998;2023-01-15T03:10:09;100695.16;;;-3.05;100.00
42859;BME280;28505;56.970;40.998;2023-01-15T03:16:21;100679.19;;;-3.18;100.00
42859;BME280;28505;56.970;40.998;2023-01-15T03:27:31;100718.88;;;-3.05;100.00
42859;BME280;28505;56.970;40.998;2023-01-15T03:32:54;100710.38;;;-3.07;100.00
42859;BME280;28505;56.970;40.998;2023-01-15T03:38:20;100712.63;;;-3.04;100.00
42859;BME280;28505;56.970;40.998;2023-01-15T03:49:51;100727.91;;;-3.14;100.00
42859;BME280;28505;56.970;40.998;2023-01-15T03:55:43;100724.09;;;-3.12;100.00
42859;BME280;28505;56.970;40.998;2023-01-15T04:01:09;100726.03;;;-3.20;100.00
42859;BME280;28505;56.970;40.998;2023-01-15T04:06:37;100741.09;;;-3.14;100.00
42859;BME280;28505;56.970;40.998;2023-01-15T04:12:01;100732.28;;;-3.21;100.00
42859;BME280;28505;56.970;40.998;2023-01-15T04:17:28;100743.94;;;-3.16;100.00
42859;BME280;28505;56.970;40.998;2023-01-15T04:22:51;100732.03;;;-3.26;100.00
42859;BME280;28505;56.970;40.998;2023-01-15T04:28:15;100731.03;;;-3.25;100.00
42859;BME280;28505;56.970;40.998;2023-01-15T04:33:37;100738.56;;;-3.22;100.00
42859;BME280;28505;56.970;40.998;2023-01-15T04:39:01;100727.28;;;-3.31;100.00
42859;BME280;28505;56.970;40.998;2023-01-15T04:44:24;100745.84;;;-3.24;100.00
42859;BME280;28505;56.970;40.998;2023-01-15T04:49:48;100751.03;;;-3.31;100.00
42859;BME280;28505;56.970;40.998;2023-01-15T04:55:10;100723.03;;;-3.47;100.00
42859;BME280;28505;56.970;40.998;2023-01-15T05:00:32;100741.13;;;-3.29;100.00
42859;BME280;28505;56.970;40.998;2023-01-15T05:05:54;100739.66;;;-3.32;100.00
42859;BME280;28505;56.970;40.998;2023-01-15T05:11:16;100736.13;;;-3.39;100.00
42859;BME280;28505;56.970;40.998;2023-01-15T05:16:42;100742.94;;;-3.30;100.00
42859;BME280;28505;56.970;40.998;2023-01-15T05:22:15;100709.22;;;-3.49;100.00
42859;BME280;28505;56.970;40.998;2023-01-15T05:27:41;100713.41;;;-3.40;100.00
42859;BME280;28505;56.970;40.998;2023-01-15T05:33:25;100700.88;;;-3.53;100.00
42859;BME280;28505;56.970;40.998;2023-01-15T05:38:52;100720.22;;;-3.45;100.00
42859;BME280;28505;56.970;40.998;2023-01-15T05:44:32;100736.69;;;-3.43;100.00
42859;BME280;28505;56.970;40.998;2023-01-15T05:50:18;100726.78;;;-3.56;100.00
42859;BME280;28505;56.970;40.998;2023-01-15T05:55:41;100733.31;;;-3.52;100.00
42859;BME280;28505;56.970;40.998;2023-01-15T06:01:09;100724.16;;;-3.56;100.00
42859;BME280;28505;56.970;40.998;2023-01-15T06:06:33;100719.22;;;-3.59;100.00
42859;BME280;28505;56.970;40.998;2023-01-15T06:11:57;100712.50;;;-3.62;100.00
42859;BME280;28505;56.970;40.998;2023-01-15T06:17:21;100722.31;;;-3.56;100.00
42859;BME280;28505;56.970;40.998;2023-01-15T06:22:48;100748.22;;;-3.44;100.00
42859;BME280;28505;56.970;40.998;2023-01-15T06:28:10;100736.97;;;-3.53;100.00
42859;BME280;28505;56.970;40.998;2023-01-15T06:33:32;100721.22;;;-3.61;100.00
42859;BME280;28505;56.970;40.998;2023-01-15T06:38:55;100749.13;;;-3.52;100.00
42859;BME280;28505;56.970;40.998;2023-01-15T06:44:17;100737.56;;;-3.51;100.00
42859;BME280;28505;56.970;40.998;2023-01-15T06:49:58;100753.69;;;-3.46;100.00
42859;BME280;28505;56.970;40.998;2023-01-15T06:55:19;100743.03;;;-3.53;100.00
42859;BME280;28505;56.970;40.998;2023-01-15T07:00:43;100724.97;;;-3.56;100.00
42859;BME280;28505;56.970;40.998;2023-01-15T07:06:09;100729.22;;;-3.55;100.00
42859;BME280;28505;56.970;40.998;2023-01-15T07:11:32;100735.75;;;-3.50;100.00
42859;BME280;28505;56.970;40.998;2023-01-15T07:16:55;100741.84;;;-3.50;100.00
42859;BME280;28505;56.970;40.998;2023-01-15T07:22:23;100749.66;;;-3.42;100.00
42859;BME280;28505;56.970;40.998;2023-01-15T07:27:49;100728.28;;;-3.47;100.00
42859;BME280;28505;56.970;40.998;2023-01-15T07:33:12;100730.66;;;-3.37;100.00
42859;BME280;28505;56.970;40.998;2023-01-15T07:38:40;100733.22;;;-3.44;100.00
42859;BME280;28505;56.970;40.998;2023-01-15T07:44:08;100753.56;;;-3.38;100.00
42859;BME280;28505;56.970;40.998;2023-01-15T07:49:50;100744.59;;;-3.43;100.00
42859;BME280;28505;56.970;40.998;2023-01-15T07:55:16;100758.84;;;-3.38;100.00
42859;BME280;28505;56.970;40.998;2023-01-15T08:00:39;100754.13;;;-3.42;100.00
42859;BME280;28505;56.970;40.998;2023-01-15T08:06:11;100766.41;;;-3.35;100.00
42859;BME280;28505;56.970;40.998;2023-01-15T08:11:41;100752.59;;;-3.37;100.00
42859;BME280;28505;56.970;40.998;2023-01-15T08:17:25;100749.84;;;-3.28;100.00
42859;BME280;28505;56.970;40.998;2023-01-15T08:22:48;100721.59;;;-3.49;100.00
42859;BME280;28505;56.970;40.998;2023-01-15T08:28:11;100758.78;;;-3.30;100.00
42859;BME280;28505;56.970;40.998;2023-01-15T08:33:35;100738.13;;;-3.26;100.00
42859;BME280;28505;56.970;40.998;2023-01-15T08:38:57;100760.31;;;-3.20;100.00
42859;BME280;28505;56.970;40.998;2023-01-15T08:44:20;100721.03;;;-3.45;100.00
42859;BME280;28505;56.970;40.998;2023-01-15T08:49:47;100729.03;;;-3.38;100.00
42859;BME280;28505;56.970;40.998;2023-01-15T08:55:16;100717.59;;;-3.45;100.00
42859;BME280;28505;56.970;40.998;2023-01-15T09:00:38;100741.56;;;-3.25;100.00
42859;BME280;28505;56.970;40.998;2023-01-15T09:06:02;100737.41;;;-3.20;100.00
42859;BME280;28505;56.970;40.998;2023-01-15T09:11:24;100701.84;;;-3.39;100.00
42859;BME280;28505;56.970;40.998;2023-01-15T09:16:49;100714.84;;;-3.22;100.00
42859;BME280;28505;56.970;40.998;2023-01-15T09:22:14;100702.66;;;-3.23;100.00
42859;BME280;28505;56.970;40.998;2023-01-15T09:27:37;100718.00;;;-3.12;100.00
42859;BME280;28505;56.970;40.998;2023-01-15T09:33:03;100719.34;;;-3.01;100.00
42859;BME280;28505;56.970;40.998;2023-01-15T09:38:34;100709.72;;;-3.09;100.00
42859;BME280;28505;56.970;40.998;2023-01-15T09:44:13;100721.34;;;-3.03;100.00
42859;BME280;28505;56.970;40.998;2023-01-15T09:55:49;100713.00;;;-3.07;100.00
42859;BME280;28505;56.970;40.998;2023-01-15T10:01:30;100725.81;;;-3.04;100.00
42859;BME280;28505;56.970;40.998;2023-01-15T10:07:42;100728.72;;;-2.99;100.00
42859;BME280;28505;56.970;40.998;2023-01-15T10:14:10;100711.34;;;-3.08;100.00
42859;BME280;28505;56.970;40.998;2023-01-15T10:19:57;100717.25;;;-3.06;100.00
42859;BME280;28505;56.970;40.998;2023-01-15T10:25:25;100733.63;;;-2.96;100.00
42859;BME280;28505;56.970;40.998;2023-01-15T10:31:23;100732.97;;;-2.98;100.00
42859;BME280;28505;56.970;40.998;2023-01-15T10:36:57;100714.34;;;-3.11;100.00
42859;BME280;28505;56.970;40.998;2023-01-15T10:48:39;100732.22;;;-2.92;100.00
42859;BME280;28505;56.970;40.998;2023-01-15T10:59:56;100697.91;;;-3.13;100.00
42859;BME280;28505;56.970;40.998;2023-01-15T11:05:20;100696.53;;;-3.09;100.00
42859;BME280;28505;56.970;40.998;2023-01-15T11:10:42;100704.25;;;-3.08;100.00
42859;BME280;28505;56.970;40.998;2023-01-15T11:16:16;100703.06;;;-3.05;100.00
42859;BME280;28505;56.970;40.998;2023-01-15T11:22:22;100703.06;;;-3.05;100.00
42859;BME280;28505;56.970;40.998;2023-01-15T11:27:52;100692.00;;;-3.15;100.00
42859;BME280;28505;56.970;40.998;2023-01-15T11:33:24;100723.06;;;-2.96;100.00
42859;BME280;28505;56.970;40.998;2023-01-15T11:38:48;100715.88;;;-3.02;100.00
42859;BME280;28505;56.970;40.998;2023-01-15T11:44:12;100722.31;;;-2.90;100.00
42859;BME280;28505;56.970;40.998;2023-01-15T11:49:58;100705.59;;;-2.97;100.00
42859;BME280;28505;56.970;40.998;2023-01-15T11:55:39;100713.31;;;-2.95;100.00
42859;BME280;28505;56.970;40.998;2023-01-15T12:01:02;100710.69;;;-2.95;100.00
42859;BME280;28505;56.970;40.998;2023-01-15T12:06:25;100731.63;;;-2.94;100.00
42859;BME280;28505;56.970;40.998;2023-01-15T12:28:38;100703.94;;;-2.98;100.00
42859;BME280;28505;56.970;40.998;2023-01-15T12:34:35;100685.25;;;-3.03;100.00
42859;BME280;28505;56.970;40.998;2023-01-15T12:40:23;100699.31;;;-2.96;100.00
42859;BME280;28505;56.970;40.998;2023-01-15T12:45:49;100667.53;;;-3.09;100.00
42859;BME280;28505;56.970;40.998;2023-01-15T12:51:19;100662.25;;;-3.09;100.00
42859;BME280;28505;56.970;40.998;2023-01-15T13:14:43;100695.06;;;-2.97;100.00
42859;BME280;28505;56.970;40.998;2023-01-15T13:20:57;100697.50;;;-2.95;100.00
42859;BME280;28505;56.970;40.998;2023-01-15T13:38:15;100707.69;;;-2.92;100.00
42859;BME280;28505;56.970;40.998;2023-01-15T13:43:40;100718.66;;;-2.89;100.00
42859;BME280;28505;56.970;40.998;2023-01-15T13:49:04;100695.16;;;-3.05;100.00
42859;BME280;28505;56.970;40.998;2023-01-15T13:54:26;100714.78;;;-2.93;100.00
42859;BME280;28505;56.970;40.998;2023-01-15T13:59:49;100729.22;;;-2.89;100.00
42859;BME280;28505;56.970;40.998;2023-01-15T14:05:26;100741.44;;;-2.88;100.00
42859;BME280;28505;56.970;40.998;2023-01-15T14:10:50;100738.53;;;-2.93;100.00
42859;BME280;28505;56.970;40.998;2023-01-15T14:16:27;100740.50;;;-2.95;100.00
42859;BME280;28505;56.970;40.998;2023-01-15T14:46:32;100744.09;;;-3.02;100.00
42859;BME280;28505;56.970;40.998;2023-01-15T14:53:32;100754.84;;;-3.04;100.00
42859;BME280;28505;56.970;40.998;2023-01-15T15:04:53;100729.28;;;-3.18;100.00
42859;BME280;28505;56.970;40.998;2023-01-15T15:10:39;100726.66;;;-3.18;100.00
42859;BME280;28505;56.970;40.998;2023-01-15T15:16:27;100734.47;;;-3.10;100.00
42859;BME280;28505;56.970;40.998;2023-01-15T15:21:58;100717.03;;;-3.26;100.00
42859;BME280;28505;56.970;40.998;2023-01-15T15:27:22;100725.94;;;-3.27;100.00
42859;BME280;28505;56.970;40.998;2023-01-15T15:32:49;100722.13;;;-3.39;100.00
42859;BME280;28505;56.970;40.998;2023-01-15T15:38:17;100743.13;;;-3.31;100.00
42859;BME280;28505;56.970;40.998;2023-01-15T15:43:48;100738.94;;;-3.40;100.00
42859;BME280;28505;56.970;40.998;2023-01-15T15:49:40;100732.84;;;-3.41;100.00
42859;BME280;28505;56.970;40.998;2023-01-15T15:55:13;100734.22;;;-3.45;100.00
42859;BME280;28505;56.970;40.998;2023-01-15T16:00:40;100719.84;;;-3.57;100.00
42859;BME280;28505;56.970;40.998;2023-01-15T16:06:06;100733.69;;;-3.55;100.00
42859;BME280;28505;56.970;40.998;2023-01-15T16:11:31;100734.03;;;-3.58;100.00
42859;BME280;28505;56.970;40.998;2023-01-15T16:16:54;100717.41;;;-3.59;100.00
42859;BME280;28505;56.970;40.998;2023-01-15T16:22:16;100723.94;;;-3.55;100.00
42859;BME280;28505;56.970;40.998;2023-01-15T16:27:39;100712.66;;;-3.63;100.00
42859;BME280;28505;56.970;40.998;2023-01-15T16:33:04;100706.69;;;-3.72;100.00
42859;BME280;28505;56.970;40.998;2023-01-15T16:38:33;100688.88;;;-3.85;100.00
42859;BME280;28505;56.970;40.998;2023-01-15T16:43:59;100706.50;;;-3.70;100.00
42859;BME280;28505;56.970;40.998;2023-01-15T16:54:45;100701.69;;;-3.82;100.00
42859;BME280;28505;56.970;40.998;2023-01-15T17:00:27;100704.31;;;-3.82;100.00
42859;BME280;28505;56.970;40.998;2023-01-15T17:05:56;100713.84;;;-3.81;100.00
42859;BME280;28505;56.970;40.998;2023-01-15T17:11:28;100717.84;;;-3.85;100.00
42859;BME280;28505;56.970;40.998;2023-01-15T17:17:27;100692.13;;;-3.97;100.00
42859;BME280;28505;56.970;40.998;2023-01-15T17:22:50;100709.94;;;-3.85;100.00
42859;BME280;28505;56.970;40.998;2023-01-15T17:28:13;100683.13;;;-4.03;100.00
42859;BME280;28505;56.970;40.998;2023-01-15T17:33:36;100673.41;;;-4.03;100.00
42859;BME280;28505;56.970;40.998;2023-01-15T17:38:59;100653.53;;;-4.05;100.00
42859;BME280;28505;56.970;40.998;2023-01-15T17:44:28;100646.25;;;-4.03;100.00
42859;BME280;28505;56.970;40.998;2023-01-15T17:49:51;100625.00;;;-4.16;100.00
42859;BME280;28505;56.970;40.998;2023-01-15T17:55:19;100608.75;;;-4.20;100.00
42859;BME280;28505;56.970;40.998;2023-01-15T18:01:09;100603.84;;;-4.23;100.00
42859;BME280;28505;56.970;40.998;2023-01-15T18:06:52;100595.50;;;-4.27;100.00
42859;BME280;28505;56.970;40.998;2023-01-15T18:12:19;100585.69;;;-4.33;100.00
42859;BME280;28505;56.970;40.998;2023-01-15T18:17:48;100609.31;;;-4.25;100.00
42859;BME280;28505;56.970;40.998;2023-01-15T18:23:10;100600.59;;;-4.25;100.00
42859;BME280;28505;56.970;40.998;2023-01-15T18:28:38;100625.09;;;-4.10;100.00
42859;BME280;28505;56.970;40.998;2023-01-15T18:34:00;100625.34;;;-4.19;100.00
42859;BME280;28505;56.970;40.998;2023-01-15T18:39:23;100615.53;;;-4.26;100.00
42859;BME280;28505;56.970;40.998;2023-01-15T18:44:45;100650.44;;;-4.09;100.00
42859;BME280;28505;56.970;40.998;2023-01-15T18:50:26;100640.06;;;-4.10;100.00
42859;BME280;28505;56.970;40.998;2023-01-15T18:55:48;100635.63;;;-4.10;100.00
42859;BME280;28505;56.970;40.998;2023-01-15T19:01:11;100643.97;;;-4.06;100.00
42859;BME280;28505;56.970;40.998;2023-01-15T19:06:33;100662.50;;;-4.00;100.00
42859;BME280;28505;56.970;40.998;2023-01-15T19:11:57;100652.34;;;-4.03;100.00
42859;BME280;28505;56.970;40.998;2023-01-15T19:17:21;100662.06;;;-4.03;100.00
42859;BME280;28505;56.970;40.998;2023-01-15T19:23:02;100667.59;;;-3.98;100.00
42859;BME280;28505;56.970;40.998;2023-01-15T19:28:28;100667.78;;;-4.00;100.00
42859;BME280;28505;56.970;40.998;2023-01-15T19:33:53;100651.06;;;-4.07;100.00
42859;BME280;28505;56.970;40.998;2023-01-15T19:39:39;100676.72;;;-3.86;100.00
42859;BME280;28505;56.970;40.998;2023-01-15T19:45:01;100643.25;;;-4.00;100.00
42859;BME280;28505;56.970;40.998;2023-01-15T19:50:44;100649.78;;;-3.96;100.00
42859;BME280;28505;56.970;40.998;2023-01-15T19:56:07;100653.16;;;-3.87;100.00
42859;BME280;28505;56.970;40.998;2023-01-15T20:01:29;100654.88;;;-3.80;100.00
42859;BME280;28505;56.970;40.998;2023-01-15T20:06:52;100631.28;;;-3.88;100.00
42859;BME280;28505;56.970;40.998;2023-01-15T20:12:17;100644.19;;;-3.78;100.00
42859;BME280;28505;56.970;40.998;2023-01-15T20:18:01;100625.91;;;-3.80;100.00
42859;BME280;28505;56.970;40.998;2023-01-15T20:23:23;100615.72;;;-3.83;100.00
42859;BME280;28505;56.970;40.998;2023-01-15T20:28:46;100610.75;;;-3.78;100.00
42859;BME280;28505;56.970;40.998;2023-01-15T20:34:09;100606.72;;;-3.73;100.00
42859;BME280;28505;56.970;40.998;2023-01-15T20:39:31;100599.84;;;-3.74;100.00
42859;BME280;28505;56.970;40.998;2023-01-15T20:44:54;100593.56;;;-3.73;100.00
42859;BME280;28505;56.970;40.998;2023-01-15T20:50:26;100591.19;;;-3.68;100.00
42859;BME280;28505;56.970;40.998;2023-01-15T20:55:48;100615.72;;;-3.53;100.00
42859;BME280;28505;56.970;40.998;2023-01-15T21:01:18;100592.09;;;-3.61;100.00
42859;BME280;28505;56.970;40.998;2023-01-15T21:06:40;100605.19;;;-3.53;100.00
42859;BME280;28505;56.970;40.998;2023-01-15T21:12:03;100600.28;;;-3.56;100.00
42859;BME280;28505;56.970;40.998;2023-01-15T21:17:29;100573.78;;;-3.69;100.00
42859;BME280;28505;56.970;40.998;2023-01-15T21:22:52;100586.38;;;-3.65;100.00
42859;BME280;28505;56.970;40.998;2023-01-15T21:28:17;100588.06;;;-3.57;100.00
42859;BME280;28505;56.970;40.998;2023-01-15T21:33:39;100567.50;;;-3.68;100.00
42859;BME280;28505;56.970;40.998;2023-01-15T21:39:02;100575.09;;;-3.59;100.00
42859;BME280;28505;56.970;40.998;2023-01-15T21:44:24;100544.97;;;-3.71;100.00
42859;BME280;28505;56.970;40.998;2023-01-15T21:49:54;100570.44;;;-3.57;100.00
42859;BME280;28505;56.970;40.998;2023-01-15T21:55:17;100573.91;;;-3.56;100.00
42859;BME280;28505;56.970;40.998;2023-01-15T22:00:39;100569.63;;;-3.57;100.00
42859;BME280;28505;56.970;40.998;2023-01-15T22:06:05;100562.38;;;-3.55;100.00
42859;BME280;28505;56.970;40.998;2023-01-15T22:11:28;100550.19;;;-3.56;100.00
42859;BME280;28505;56.970;40.998;2023-01-15T22:17:05;100557.75;;;-3.53;100.00
42859;BME280;28505;56.970;40.998;2023-01-15T22:22:28;100533.22;;;-3.68;100.00
42859;BME280;28505;56.970;40.998;2023-01-15T22:27:54;100543.47;;;-3.59;100.00
42859;BME280;28505;56.970;40.998;2023-01-15T22:33:23;100537.19;;;-3.58;100.00
42859;BME280;28505;56.970;40.998;2023-01-15T22:38:48;100540.63;;;-3.57;100.00
42859;BME280;28505;56.970;40.998;2023-01-15T22:44:14;100535.56;;;-3.59;100.00
42859;BME280;28505;56.970;40.998;2023-01-15T22:49:40;100524.03;;;-3.58;100.00
42859;BME280;28505;56.970;40.998;2023-01-15T22:55:03;100528.84;;;-3.61;100.00
42859;BME280;28505;56.970;40.998;2023-01-15T23:00:26;100536.81;;;-3.55;100.00
42859;BME280;28505;56.970;40.998;2023-01-15T23:05:48;100535.63;;;-3.52;100.00
42859;BME280;28505;56.970;40.998;2023-01-15T23:11:15;100519.13;;;-3.61;100.00
42859;BME280;28505;56.970;40.998;2023-01-15T23:16:38;100530.09;;;-3.57;100.00
42859;BME280;28505;56.970;40.998;2023-01-15T23:22:02;100511.03;;;-3.59;100.00
42859;BME280;28505;56.970;40.998;2023-01-15T23:27:24;100512.22;;;-3.62;100.00
42859;BME280;28505;56.970;40.998;2023-01-15T23:32:46;100498.78;;;-3.67;100.00
42859;BME280;28505;56.970;40.998;2023-01-15T23:38:08;100516.69;;;-3.62;100.00
42859;BME280;28505;56.970;40.998;2023-01-15T23:43:31;100517.72;;;-3.57;100.00
42859;BME280;28505;56.970;40.998;2023-01-15T23:49:12;100476.59;;;-3.79;100.00
42859;BME280;28505;56.970;40.998;2023-01-15T23:54:36;100491.19;;;-3.77;100.00
42859;BME280;28505;56.970;40.998;2023-01-15T23:59:58;100496.78;;;-3.65;100.00
